Van Horn, Texas
Current Conditions -  °F | °C
As of 3:51 PM on Saturday 20 Dec 2014 (Local Time) from KGDP Reporting Station
Clear Clear  
Wind Chill: 52°   Ceiling: Unl
Heat Index: 52°   Visibility: 10mi
Dew Point: 20°   Wind: 32mph
Humidity: 28%   Direction: 250°WSW
Pressure: 30.04"   Gusts: 38mph
Location:  31.04°N, 104.83°W
Report Text: KGDP 202151Z AUTO 25028G33KT 10SM CLR 11/M07 A3004 RMK AO2 PK WND 25038/2112 SLP154 T01111067
Loading
Personal Weather Stations






























Interactive Weather Map New forecast layout! Learn more

10-Day Weather Forecast

Advertisements
Track Severe Weather on mobile